TimeCDT,TemperatureF,Dew PointF,Humidity,Sea Level PressureIn,VisibilityMPH,Wind Direction,Wind SpeedMPH,Gust SpeedMPH,PrecipitationIn,Events,Conditions,WindDirDegrees,DateUTC
12:15 AM,79.0,75.2,88,29.97,10.0,South,3.5,-,N/A,,Clear,190,2013-07-20 05:15:00
12:35 AM,78.1,75.4,91,29.97,10.0,Calm,Calm,-,N/A,,Clear,0,2013-07-20 05:35:00
12:55 AM,76.6,75.4,96,29.97,10.0,South,3.5,-,N/A,,Clear,180,2013-07-20 05:55:00
1:15 AM,77.5,75.2,92,29.96,10.0,SSW,4.6,-,N/A,,Clear,200,2013-07-20 06:15:00
1:35 AM,77.2,75.2,94,29.96,10.0,SSW,4.6,-,N/A,,Clear,200,2013-07-20 06:35:00
1:55 AM,77.2,75.2,94,29.96,10.0,SW,3.5,-,N/A,,Clear,220,2013-07-20 06:55:00
2:15 AM,77.0,74.8,93,29.96,10.0,SSW,4.6,-,N/A,,Clear,210,2013-07-20 07:15:00
2:35 AM,76.6,74.7,94,29.95,10.0,SSW,4.6,-,N/A,,Clear,210,2013-07-20 07:35:00
2:55 AM,76.1,74.5,95,29.94,10.0,SSW,3.5,-,N/A,,Clear,210,2013-07-20 07:55:00
3:15 AM,76.1,74.3,94,29.94,10.0,SSW,4.6,-,N/A,,Clear,200,2013-07-20 08:15:00
3:35 AM,76.5,74.3,93,29.94,10.0,SSW,4.6,-,N/A,,Clear,210,2013-07-20 08:35:00
3:55 AM,75.0,73.8,96,29.93,10.0,SW,4.6,-,N/A,,Clear,230,2013-07-20 08:55:00
4:15 AM,75.7,74.3,95,29.94,10.0,SW,3.5,-,N/A,,Clear,220,2013-07-20 09:15:00
4:35 AM,74.8,73.6,96,29.94,10.0,Calm,Calm,-,N/A,,Clear,0,2013-07-20 09:35:00
4:55 AM,74.8,73.6,96,29.94,10.0,SW,4.6,-,N/A,,Clear,220,2013-07-20 09:55:00
5:15 AM,74.3,73.4,97,29.94,10.0,SSW,4.6,-,N/A,,Clear,210,2013-07-20 10:15:00
5:35 AM,75.0,73.6,95,29.96,10.0,SSW,4.6,-,N/A,,Clear,210,2013-07-20 10:35:00
5:55 AM,75.2,73.8,95,29.96,10.0,SSW,4.6,-,N/A,,Clear,210,2013-07-20 10:55:00
6:15 AM,75.6,74.1,95,29.96,10.0,SW,5.8,-,N/A,,Clear,220,2013-07-20 11:15:00
6:35 AM,75.9,74.3,95,29.96,7.0,WSW,5.8,-,N/A,,Clear,240,2013-07-20 11:35:00
6:55 AM,76.8,74.7,93,29.96,10.0,WSW,4.6,-,N/A,,Clear,240,2013-07-20 11:55:00
7:15 AM,78.1,75.2,91,29.97,10.0,SW,5.8,-,N/A,,Clear,230,2013-07-20 12:15:00
7:35 AM,79.0,75.2,88,29.97,10.0,WSW,6.9,-,N/A,,Clear,240,2013-07-20 12:35:00
7:55 AM,80.1,75.7,87,29.97,10.0,WSW,8.1,-,N/A,,Clear,250,2013-07-20 12:55:00
8:15 AM,81.0,75.0,82,29.97,10.0,WSW,9.2,-,N/A,,Clear,250,2013-07-20 13:15:00
8:35 AM,81.5,75.0,81,29.97,10.0,West,9.2,-,N/A,,Clear,260,2013-07-20 13:35:00
8:55 AM,82.4,75.6,80,29.97,10.0,WSW,11.5,-,N/A,,Clear,240,2013-07-20 13:55:00
9:15 AM,82.8,74.8,77,29.96,10.0,WSW,10.4,-,N/A,,Scattered Clouds,240,2013-07-20 14:15:00
9:35 AM,83.7,74.3,73,29.96,10.0,SW,12.7,-,N/A,,Scattered Clouds,230,2013-07-20 14:35:00
9:55 AM,84.2,73.8,71,29.96,10.0,SW,12.7,-,N/A,,Clear,230,2013-07-20 14:55:00
10:15 AM,84.2,73.8,71,29.97,10.0,West,11.5,-,N/A,,Clear,260,2013-07-20 15:15:00
10:35 AM,85.5,74.5,70,29.97,10.0,WSW,10.4,-,N/A,,Scattered Clouds,240,2013-07-20 15:35:00
10:55 AM,85.6,74.8,70,29.96,10.0,WSW,10.4,-,N/A,,Scattered Clouds,240,2013-07-20 15:55:00
11:15 AM,86.5,74.1,66,29.96,10.0,WSW,11.5,-,N/A,,Scattered Clouds,240,2013-07-20 16:15:00
11:35 AM,87.4,73.9,64,29.96,10.0,WSW,10.4,-,N/A,,Mostly Cloudy,240,2013-07-20 16:35:00
11:55 AM,87.3,74.5,66,29.96,10.0,SW,9.2,-,N/A,,Scattered Clouds,230,2013-07-20 16:55:00
12:15 PM,87.6,74.1,64,29.95,10.0,WSW,6.9,-,N/A,,Scattered Clouds,240,2013-07-20 17:15:00
12:35 PM,87.1,73.6,64,29.95,10.0,SW,10.4,-,N/A,,Scattered Clouds,230,2013-07-20 17:35:00
12:55 PM,88.0,74.3,64,29.94,10.0,SW,12.7,17.3,N/A,,Mostly Cloudy,220,2013-07-20 17:55:00
1:15 PM,88.5,74.3,63,29.93,10.0,SW,10.4,17.3,N/A,,Scattered Clouds,220,2013-07-20 18:15:00
1:35 PM,88.7,75.4,65,29.93,10.0,WSW,16.1,-,N/A,,Mostly Cloudy,250,2013-07-20 18:35:00
1:55 PM,89.1,73.4,60,29.91,10.0,West,12.7,-,N/A,,Scattered Clouds,260,2013-07-20 18:55:00
2:15 PM,88.3,74.8,64,29.91,10.0,WSW,12.7,18.4,N/A,,Mostly Cloudy,240,2013-07-20 19:15:00
2:35 PM,89.4,73.6,59,29.91,10.0,West,9.2,-,N/A,,Mostly Cloudy,260,2013-07-20 19:35:00
2:55 PM,90.1,74.3,59,29.90,10.0,WSW,11.5,-,N/A,,Scattered Clouds,240,2013-07-20 19:55:00
3:15 PM,90.5,74.1,58,29.88,10.0,SW,10.4,-,N/A,,Scattered Clouds,230,2013-07-20 20:15:00
3:35 PM,90.3,74.1,59,29.87,10.0,SW,10.4,-,N/A,,Scattered Clouds,230,2013-07-20 20:35:00
3:55 PM,90.3,73.9,58,29.86,10.0,WSW,12.7,18.4,N/A,,Scattered Clouds,250,2013-07-20 20:55:00
4:15 PM,90.7,73.9,58,29.86,10.0,WSW,11.5,16.1,N/A,,Scattered Clouds,240,2013-07-20 21:15:00
4:35 PM,90.7,74.1,58,29.86,10.0,SSW,9.2,-,N/A,,Mostly Cloudy,210,2013-07-20 21:35:00
4:55 PM,91.2,74.3,57,29.87,10.0,SSW,11.5,-,N/A,,Mostly Cloudy,210,2013-07-20 21:55:00
5:15 PM,90.3,74.3,59,29.86,10.0,WSW,9.2,-,N/A,,Scattered Clouds,240,2013-07-20 22:15:00
5:35 PM,90.0,74.3,60,29.87,10.0,SW,5.8,-,N/A,,Mostly Cloudy,220,2013-07-20 22:35:00
5:55 PM,89.8,74.5,61,29.87,10.0,WSW,6.9,-,N/A,,Scattered Clouds,240,2013-07-20 22:55:00
6:15 PM,88.9,74.3,62,29.88,10.0,WSW,5.8,-,N/A,,Clear,240,2013-07-20 23:15:00
6:35 PM,87.8,74.5,64,29.90,10.0,West,6.9,-,N/A,,Scattered Clouds,260,2013-07-20 23:35:00
6:55 PM,85.6,74.5,69,29.90,10.0,SW,8.1,-,N/A,,Clear,230,2013-07-20 23:55:00
7:15 PM,85.1,75.2,72,29.89,10.0,SW,4.6,-,N/A,,Clear,230,2013-07-21 00:15:00
7:35 PM,84.7,75.2,73,29.91,10.0,Calm,Calm,-,N/A,,Scattered Clouds,0,2013-07-21 00:35:00
7:55 PM,80.2,68.2,67,29.91,10.0,NNE,19.6,-,N/A,,Mostly Cloudy,20,2013-07-21 00:55:00
8:15 PM,78.1,68.9,73,29.92,10.0,NNE,12.7,-,N/A,,Overcast,30,2013-07-21 01:15:00
8:35 PM,75.6,70.7,85,29.97,10.0,NNW,6.9,-,N/A,,Overcast,330,2013-07-21 01:35:00
8:55 PM,73.4,72.1,96,29.96,2.0,North,16.1,-,0.28,Rain,Heavy Rain,10,2013-07-21 01:55:00
9:15 PM,72.7,72.1,98,29.96,10.0,NNE,4.6,-,0.01,Rain,Light Rain,20,2013-07-21 02:15:00
9:35 PM,72.5,72.1,99,29.96,7.0,North,3.5,-,0.03,Rain,Light Rain,360,2013-07-21 02:35:00
9:55 PM,72.1,71.6,98,29.95,7.0,NE,4.6,-,0.04,Rain,Light Rain,50,2013-07-21 02:55:00
10:15 PM,72.5,72.1,99,29.96,10.0,Calm,Calm,-,N/A,,Mostly Cloudy,0,2013-07-21 03:15:00
10:35 PM,72.5,72.1,99,29.94,7.0,SSE,3.5,-,0.01,Rain,Light Rain,160,2013-07-21 03:35:00
10:55 PM,72.5,72.0,98,29.95,7.0,West,6.9,-,0.01,,Clear,260,2013-07-21 03:55:00
11:15 PM,72.7,72.3,99,29.93,7.0,SSW,8.1,-,N/A,Rain,Light Rain,200,2013-07-21 04:15:00
11:35 PM,72.7,72.5,99,29.94,7.0,West,3.5,-,0.01,Rain,Light Rain,270,2013-07-21 04:35:00
11:55 PM,72.7,72.5,99,29.93,7.0,West,4.6,-,0.01,Rain,Light Rain,260,2013-07-21 04:55:00